Time;durP1;ratioP1;P1;durP2;ratioP2;P2;SDS_P1;SDS_P2;PMS_P1;PMS_P2;Temp;Humidity;BMP_temperature;BMP_pressure;BME280_temperature;BME280_humidity;BME280_pressure;Samples;Min_cycle;Max_cycle;Signal;HPM_P1;HPM_P2
2023/03/08 00:00:58;;;;;;;12.80;11.00;;;;;20.10;98948.00;;;;2071726;28;20581;-67
2023/03/08 00:01:58;;;;;;;12.33;10.83;;;;;20.10;98948.00;;;;2063116;28;20215;-67
2023/03/08 00:02:58;;;;;;;12.33;10.50;;;;;20.10;98945.00;;;;2062964;28;20313;-67
2023/03/08 00:03:59;;;;;;;14.53;11.57;;;;;20.00;98953.00;;;;2071665;28;20209;-68
2023/03/08 00:05:00;;;;;;;13.20;11.63;;;;;20.00;98952.00;;;;2071772;28;20214;-67
2023/03/08 00:06:05;;;;;;;12.45;11.18;;;;;20.00;98956.00;;;;2071621;28;20698;-68
2023/03/08 00:07:05;;;;;;;12.65;10.52;;;;;20.00;98956.00;;;;2071406;28;20702;-68
2023/03/08 00:08:05;;;;;;;11.87;10.67;;;;;20.00;98963.00;;;;2071014;28;20221;-67
2023/03/08 00:09:06;;;;;;;15.60;11.83;;;;;20.00;98949.00;;;;2071761;28;20210;-67
2023/03/08 00:10:07;;;;;;;11.87;10.23;;;;;20.00;98949.00;;;;2071764;28;20237;-67
2023/03/08 00:11:08;;;;;;;11.40;10.20;;;;;20.00;98943.00;;;;2062770;28;20227;-67
2023/03/08 00:12:09;;;;;;;12.00;10.80;;;;;20.00;98960.00;;;;2062992;28;20692;-68
2023/03/08 00:13:09;;;;;;;11.65;10.07;;;;;20.00;98954.00;;;;2071618;28;20229;-67
2023/03/08 00:14:10;;;;;;;11.00;9.90;;;;;20.00;98953.00;;;;2071604;28;20210;-67
2023/03/08 00:15:10;;;;;;;12.10;10.80;;;;;20.00;98960.00;;;;2071603;28;20230;-67
2023/03/08 00:16:11;;;;;;;12.47;10.10;;;;;20.00;98970.00;;;;2071568;28;20633;-68
2023/03/08 00:17:11;;;;;;;14.10;10.90;;;;;20.00;98964.00;;;;2062991;28;20304;-67
2023/03/08 00:18:12;;;;;;;11.50;10.30;;;;;20.00;98960.00;;;;2062646;28;20509;-68
2023/03/08 00:19:12;;;;;;;11.53;10.00;;;;;20.00;98958.00;;;;2071793;28;20218;-68
2023/03/08 00:20:13;;;;;;;11.27;9.57;;;;;20.00;98957.00;;;;2071787;28;20233;-67
2023/03/08 00:21:14;;;;;;;11.63;10.07;;;;;20.00;98960.00;;;;2071729;28;20665;-67
2023/03/08 00:22:15;;;;;;;10.90;9.77;;;;;20.00;98969.00;;;;2071672;28;20218;-67
2023/03/08 00:23:15;;;;;;;12.07;9.80;;;;;20.00;98961.00;;;;2071746;28;20214;-68
2023/03/08 00:24:16;;;;;;;12.50;10.57;;;;;19.90;98955.00;;;;2071587;28;20221;-67
2023/03/08 00:25:16;;;;;;;10.27;9.18;;;;;19.90;98956.00;;;;2071702;28;20218;-67
2023/03/08 00:26:17;;;;;;;9.97;8.87;;;;;19.90;98955.00;;;;2071455;28;20218;-68
2023/03/08 00:27:17;;;;;;;10.20;9.13;;;;;19.90;98956.00;;;;2071687;28;20237;-68
2023/03/08 00:28:17;;;;;;;11.37;10.17;;;;;19.90;98956.00;;;;2071144;28;20222;-68
2023/03/08 00:29:18;;;;;;;11.80;9.50;;;;;19.90;98958.00;;;;2071770;28;20221;-67
2023/03/08 00:30:18;;;;;;;10.50;8.83;;;;;19.90;98953.00;;;;2071570;28;20238;-68
2023/03/08 00:31:18;;;;;;;9.97;8.90;;;;;20.00;98952.00;;;;2071732;28;20217;-67
2023/03/08 00:32:19;;;;;;;10.27;9.27;;;;;19.90;98955.00;;;;2070435;28;20214;-68
2023/03/08 00:33:19;;;;;;;11.03;9.50;;;;;19.90;98948.00;;;;2069421;28;20488;-68
2023/03/08 00:34:19;;;;;;;10.60;9.50;;;;;19.90;98953.00;;;;2065130;28;20215;-68
2023/03/08 00:35:20;;;;;;;10.90;9.00;;;;;19.90;98952.00;;;;2069672;28;20210;-67
2023/03/08 00:36:20;;;;;;;9.40;8.40;;;;;19.90;98950.00;;;;2071300;28;20314;-67
2023/03/08 00:37:20;;;;;;;9.77;8.83;;;;;19.90;98954.00;;;;2071638;28;20225;-68
2023/03/08 00:38:21;;;;;;;9.63;8.63;;;;;19.90;98940.00;;;;2062551;28;20558;-67
2023/03/08 00:39:21;;;;;;;9.70;8.70;;;;;19.80;98953.00;;;;2062982;28;20752;-67
2023/03/08 00:40:21;;;;;;;10.77;8.20;;;;;19.90;98948.00;;;;2062721;28;20211;-67
2023/03/08 00:41:22;;;;;;;10.60;8.20;;;;;19.90;98950.00;;;;2062952;28;20642;-67
2023/03/08 00:42:22;;;;;;;9.20;8.37;;;;;19.90;98957.00;;;;2071635;28;20584;-67
2023/03/08 00:43:22;;;;;;;8.53;7.73;;;;;19.80;98952.00;;;;2071779;28;20256;-67
2023/03/08 00:44:23;;;;;;;8.93;8.03;;;;;19.80;98953.00;;;;2071523;28;20214;-68
2023/03/08 00:45:23;;;;;;;9.10;7.97;;;;;19.80;98956.00;;;;2071714;28;20280;-68
2023/03/08 00:46:24;;;;;;;9.57;8.57;;;;;19.90;98960.00;;;;2071288;28;20210;-67
2023/03/08 00:47:24;;;;;;;10.03;9.03;;;;;19.80;98955.00;;;;2071245;28;20229;-67
2023/03/08 00:48:24;;;;;;;9.60;8.17;;;;;19.90;98950.00;;;;2070937;28;20212;-67
2023/03/08 00:49:25;;;;;;;8.73;7.93;;;;;19.80;98950.00;;;;2071556;28;20207;-67
2023/03/08 00:50:25;;;;;;;8.83;7.80;;;;;19.80;98952.00;;;;2071701;28;20703;-68
2023/03/08 00:51:25;;;;;;;8.20;7.40;;;;;19.90;98947.00;;;;2062696;28;20231;-67
2023/03/08 00:52:26;;;;;;;8.77;7.87;;;;;19.90;98947.00;;;;2062951;28;20722;-67
2023/03/08 00:53:26;;;;;;;9.00;8.07;;;;;19.80;98949.00;;;;2071365;28;20260;-68
2023/03/08 00:54:27;;;;;;;8.57;7.67;;;;;19.80;98938.00;;;;2071341;28;20728;-68
2023/03/08 00:55:28;;;;;;;8.75;7.85;;;;;19.80;98946.00;;;;2062289;28;20226;-67
2023/03/08 00:56:28;;;;;;;10.73;7.77;;;;;19.80;98943.00;;;;2062657;28;20221;-67
2023/03/08 00:57:30;;;;;;;7.67;6.73;;;;;19.80;98947.00;;;;2071447;28;20208;-68
2023/03/08 00:58:30;;;;;;;8.70;7.55;;;;;19.80;98942.00;;;;2071914;28;20211;-67
2023/03/08 00:59:31;;;;;;;8.20;7.40;;;;;19.80;98950.00;;;;2071642;28;20229;-68
2023/03/08 01:00:31;;;;;;;8.50;7.40;;;;;19.80;98941.00;;;;2071423;28;20579;-67
2023/03/08 01:01:31;;;;;;;8.43;7.33;;;;;19.80;98946.00;;;;2071194;28;20206;-67
2023/03/08 01:02:32;;;;;;;8.10;7.30;;;;;19.80;98949.00;;;;2071474;28;20210;-67
2023/03/08 01:03:32;;;;;;;8.70;7.50;;;;;19.80;98946.00;;;;2070904;28;20629;-68
2023/03/08 01:04:32;;;;;;;8.83;7.17;;;;;19.80;98963.00;;;;2071350;28;20584;-67
2023/03/08 01:05:33;;;;;;;8.63;7.73;;;;;19.80;98948.00;;;;2071238;28;20703;-68
2023/03/08 01:06:33;;;;;;;8.17;7.30;;;;;19.80;98949.00;;;;2071328;28;20285;-68
2023/03/08 01:07:33;;;;;;;7.97;6.40;;;;;19.80;98945.00;;;;2062720;28;20674;-68
2023/03/08 01:08:34;;;;;;;7.77;7.03;;;;;19.70;98945.00;;;;2062361;28;20687;-68
2023/03/08 01:09:34;;;;;;;7.00;6.30;;;;;19.70;98946.00;;;;2062733;28;20203;-68
2023/03/08 01:10:35;;;;;;;7.50;6.80;;;;;19.70;98941.00;;;;2062501;28;20215;-67
2023/03/08 01:11:36;;;;;;;8.10;7.37;;;;;19.80;98938.00;;;;2071533;28;20213;-67
2023/03/08 01:12:36;;;;;;;8.30;6.75;;;;;19.70;98935.00;;;;2071647;28;20241;-68
2023/03/08 01:13:36;;;;;;;7.40;6.70;;;;;19.70;98938.00;;;;2071359;28;20758;-68
2023/03/08 01:14:37;;;;;;;6.90;6.20;;;;;19.70;98929.00;;;;2071372;28;20283;-67
2023/03/08 01:15:37;;;;;;;7.57;6.83;;;;;19.70;98931.00;;;;2071217;28;20861;-68
2023/03/08 01:16:37;;;;;;;7.50;6.70;;;;;19.70;98929.00;;;;2071287;28;20222;-68
2023/03/08 01:17:38;;;;;;;7.57;6.87;;;;;19.70;98924.00;;;;2071536;28;20233;-67
2023/03/08 01:18:38;;;;;;;7.67;6.80;;;;;19.70;98924.00;;;;2071224;28;20221;-68
2023/03/08 01:19:38;;;;;;;6.90;6.30;;;;;19.70;98927.00;;;;2073045;28;20206;-67
2023/03/08 01:20:39;;;;;;;8.23;7.37;;;;;19.70;98915.00;;;;2073100;28;20579;-68
2023/03/08 01:21:39;;;;;;;7.50;6.80;;;;;19.70;98917.00;;;;2073089;28;20313;-67
2023/03/08 01:22:39;;;;;;;8.40;7.00;;;;;19.70;98920.00;;;;2073092;28;20623;-67
2023/03/08 01:23:40;;;;;;;7.60;6.63;;;;;19.70;98920.00;;;;2072971;28;20607;-68
2023/03/08 01:24:46;;;;;;;7.10;6.50;;;;;19.70;98921.00;;;;2072947;28;20727;-68
2023/03/08 01:25:46;;;;;;;7.57;6.43;;;;;19.70;98921.00;;;;2073015;28;20214;-68
2023/03/08 01:26:47;;;;;;;8.07;7.27;;;;;19.70;98919.00;;;;2072855;28;20214;-68
2023/03/08 01:27:47;;;;;;;6.43;5.77;;;;;19.70;98895.00;;;;2073010;28;20218;-68
2023/03/08 01:28:47;;;;;;;7.03;6.33;;;;;19.70;98926.00;;;;2072695;28;20779;-68
2023/03/08 01:29:48;;;;;;;6.60;5.90;;;;;19.70;98915.00;;;;2073018;28;20210;-67
2023/03/08 01:30:48;;;;;;;7.33;6.63;;;;;19.50;98917.00;;;;2072980;28;20214;-68
2023/03/08 01:31:48;;;;;;;6.70;6.10;;;;;19.70;98919.00;;;;2073059;28;20217;-68
2023/03/08 01:32:49;;;;;;;6.50;5.90;;;;;19.70;98912.00;;;;2073070;28;20237;-67
2023/03/08 01:33:49;;;;;;;7.20;6.50;;;;;19.70;98911.00;;;;2072898;28;20217;-68
2023/03/08 01:34:49;;;;;;;6.30;5.70;;;;;19.70;98905.00;;;;2072697;28;20639;-68
2023/03/08 01:35:50;;;;;;;6.70;6.10;;;;;19.70;98913.00;;;;2072800;28;20211;-67
2023/03/08 01:36:50;;;;;;;6.60;6.00;;;;;19.70;98902.00;;;;2072550;28;20908;-68
2023/03/08 01:37:53;;;;;;;6.03;5.43;;;;;19.60;98906.00;;;;2072759;28;20576;-67
2023/03/08 01:38:54;;;;;;;6.05;5.45;;;;;19.60;98904.00;;;;2072456;28;20214;-67
2023/03/08 01:39:54;;;;;;;6.40;5.77;;;;;19.60;98901.00;;;;2072556;28;20210;-67
2023/03/08 01:40:56;;;;;;;6.57;5.97;;;;;19.60;98893.00;;;;2072740;28;20246;-68
2023/03/08 01:41:56;;;;;;;7.03;6.30;;;;;19.60;98895.00;;;;2072894;28;20585;-68
2023/03/08 01:42:57;;;;;;;6.83;6.13;;;;;19.60;98890.00;;;;2072894;28;20253;-67
2023/03/08 01:43:57;;;;;;;6.20;5.60;;;;;19.60;98895.00;;;;2072969;28;20218;-67
2023/03/08 01:45:03;;;;;;;6.27;5.50;;;;;19.60;98894.00;;;;2072637;28;20305;-68
2023/03/08 01:46:25;;;;;;;6.60;5.93;;;;;19.60;98890.00;;;;2072767;28;20264;-67
2023/03/08 01:47:27;;;;;;;5.88;5.30;;;;;19.60;98900.00;;;;2072604;28;20217;-68
2023/03/08 01:48:32;;;;;;;6.13;5.53;;;;;19.60;98892.00;;;;2063588;28;20214;-67
2023/03/08 01:49:33;;;;;;;6.22;5.63;;;;;19.60;98882.00;;;;2048660;28;20215;-68
2023/03/08 01:50:33;;;;;;;6.07;5.57;;;;;19.60;98829.00;;;;2056069;28;20208;-67
2023/03/08 01:51:50;;;;;;;6.33;5.73;;;;;19.60;98884.00;;;;2056231;28;20726;-68
2023/03/08 01:52:51;;;;;;;5.22;4.72;;;;;19.60;98865.00;;;;2071414;28;20775;-67
2023/03/08 01:53:51;;;;;;;5.83;5.33;;;;;19.60;98886.00;;;;2056098;28;20208;-67
2023/03/08 01:54:55;;;;;;;6.37;5.77;;;;;19.60;98886.00;;;;2055100;28;21601;-67
2023/03/08 01:55:56;;;;;;;6.28;5.68;;;;;19.60;98886.00;;;;2055948;28;20290;-67
2023/03/08 01:57:01;;;;;;;5.50;5.00;;;;;19.60;98891.00;;;;2055818;28;20271;-67
2023/03/08 01:58:01;;;;;;;5.28;4.85;;;;;19.60;98871.00;;;;2055809;28;20208;-68
2023/03/08 01:59:02;;;;;;;8.30;5.90;;;;;19.50;98854.00;;;;2056138;28;20219;-67
2023/03/08 02:00:08;;;;;;;6.37;5.70;;;;;19.50;98875.00;;;;2055992;28;20586;-67
2023/03/08 02:01:09;;;;;;;6.22;5.63;;;;;19.50;98880.00;;;;2048760;28;20219;-67
2023/03/08 02:02:09;;;;;;;5.43;4.93;;;;;19.60;98872.00;;;;2056549;28;20212;-67
2023/03/08 02:03:10;;;;;;;5.97;4.90;;;;;19.60;98863.00;;;;2055924;28;20730;-67
2023/03/08 02:04:10;;;;;;;5.93;5.40;;;;;19.60;98837.00;;;;2056005;28;20303;-67
2023/03/08 02:05:10;;;;;;;5.77;5.17;;;;;19.50;98859.00;;;;2055851;28;20215;-68
2023/03/08 02:06:11;;;;;;;5.77;5.23;;;;;19.50;98847.00;;;;2047968;28;20216;-68
2023/03/08 02:07:11;;;;;;;6.43;5.83;;;;;19.50;98860.00;;;;2047952;28;20224;-67
2023/03/08 02:08:11;;;;;;;5.80;5.20;;;;;19.50;98867.00;;;;2055699;28;20239;-67
2023/03/08 02:09:12;;;;;;;5.57;5.07;;;;;19.50;98852.00;;;;2064653;28;20247;-68
2023/03/08 02:10:12;;;;;;;5.60;5.10;;;;;19.50;98851.00;;;;2064253;28;20214;-67
2023/03/08 02:11:13;;;;;;;7.47;5.70;;;;;19.30;98853.00;;;;2055840;28;20219;-67
2023/03/08 02:12:13;;;;;;;6.53;5.20;;;;;19.50;98852.00;;;;2040095;29;20249;-67
2023/03/08 02:13:13;;;;;;;5.17;4.77;;;;;19.50;98839.00;;;;2047975;28;20212;-67
2023/03/08 02:14:13;;;;;;;5.63;5.13;;;;;19.50;98850.00;;;;2047849;28;20691;-67
2023/03/08 02:15:16;;;;;;;6.20;5.70;;;;;19.50;98842.00;;;;2055886;28;20808;-67
2023/03/08 02:16:16;;;;;;;5.30;4.80;;;;;19.50;98830.00;;;;2055683;28;20296;-68
2023/03/08 02:17:16;;;;;;;4.97;4.57;;;;;19.50;98846.00;;;;2047953;28;20240;-67
2023/03/08 02:18:17;;;;;;;4.67;4.27;;;;;19.50;98845.00;;;;2055454;28;20208;-67
2023/03/08 02:19:32;;;;;;;5.53;4.97;;;;;19.40;98847.00;;;;2064393;28;20238;-67
2023/03/08 02:20:37;;;;;;;6.15;5.60;;;;;19.50;98847.00;;;;2055322;28;20215;-67
2023/03/08 02:21:37;;;;;;;4.75;4.13;;;;;19.50;98840.00;;;;2056980;28;20218;-67
2023/03/08 02:22:38;;;;;;;5.20;4.80;;;;;19.50;98838.00;;;;2064467;28;20215;-67
2023/03/08 02:23:38;;;;;;;5.22;4.72;;;;;19.50;98827.00;;;;2064449;28;20810;-67
2023/03/08 02:24:39;;;;;;;4.87;4.33;;;;;19.50;98829.00;;;;2055709;28;20262;-68
2023/03/08 02:25:39;;;;;;;5.43;4.93;;;;;19.50;98829.00;;;;2055684;28;20211;-67
2023/03/08 02:26:40;;;;;;;4.87;4.47;;;;;19.50;98818.00;;;;2055774;28;20233;-68
2023/03/08 02:27:40;;;;;;;6.27;5.00;;;;;19.50;98823.00;;;;2055523;28;20286;-67
2023/03/08 02:28:40;;;;;;;5.67;5.17;;;;;19.50;98827.00;;;;2055440;28;20220;-67
2023/03/08 02:29:41;;;;;;;5.47;4.97;;;;;19.40;98825.00;;;;2064451;28;20206;-67
2023/03/08 02:30:41;;;;;;;5.47;4.97;;;;;19.50;98832.00;;;;2063660;28;20214;-67
2023/03/08 02:31:41;;;;;;;4.80;4.30;;;;;19.40;98820.00;;;;2064328;28;20364;-67
2023/03/08 02:32:42;;;;;;;5.20;4.13;;;;;19.40;98815.00;;;;2064470;28;20261;-67
2023/03/08 02:33:42;;;;;;;5.60;4.83;;;;;19.40;98819.00;;;;2055651;28;20778;-68
2023/03/08 02:34:42;;;;;;;5.47;4.90;;;;;19.40;98818.00;;;;2055781;28;20291;-68
2023/03/08 02:35:43;;;;;;;5.00;4.50;;;;;19.50;98826.00;;;;2063979;28;20229;-68
2023/03/08 02:36:43;;;;;;;6.20;5.60;;;;;19.50;98821.00;;;;2064024;28;20230;-68
2023/03/08 02:37:44;;;;;;;5.20;4.70;;;;;19.50;98831.00;;;;2064445;28;20219;-67
2023/03/08 02:38:44;;;;;;;4.47;4.07;;;;;19.40;98826.00;;;;2064160;28;20215;-68
2023/03/08 02:39:44;;;;;;;4.87;4.40;;;;;19.50;98829.00;;;;2055764;28;20597;-68
2023/03/08 02:40:45;;;;;;;5.20;4.70;;;;;19.40;98834.00;;;;2055753;28;20600;-68
2023/03/08 02:41:45;;;;;;;5.60;5.00;;;;;19.40;98829.00;;;;2064117;28;20674;-68
2023/03/08 02:42:45;;;;;;;5.13;4.73;;;;;19.40;98835.00;;;;2064350;28;20739;-68
2023/03/08 02:43:46;;;;;;;6.33;4.77;;;;;19.40;98833.00;;;;2053952;28;20741;-68
2023/03/08 02:44:46;;;;;;;4.90;4.50;;;;;19.40;98839.00;;;;2055751;28;20247;-68
2023/03/08 02:45:46;;;;;;;5.07;4.57;;;;;19.40;98838.00;;;;2064293;28;20215;-68
2023/03/08 02:46:47;;;;;;;5.30;4.80;;;;;19.40;98827.00;;;;2064153;28;20231;-68
2023/03/08 02:47:47;;;;;;;5.53;4.43;;;;;19.40;98837.00;;;;2055601;28;20702;-68
2023/03/08 02:48:49;;;;;;;5.00;4.50;;;;;19.40;98828.00;;;;2055504;28;20698;-68
2023/03/08 02:49:49;;;;;;;4.70;4.30;;;;;19.40;98826.00;;;;2064381;28;20281;-68
2023/03/08 02:50:50;;;;;;;5.10;4.60;;;;;19.40;98825.00;;;;2064327;28;20211;-67
2023/03/08 02:51:50;;;;;;;4.67;4.27;;;;;19.40;98812.00;;;;2064126;28;20226;-68
2023/03/08 02:52:50;;;;;;;5.20;4.60;;;;;19.40;98820.00;;;;2064050;28;20224;-67
2023/03/08 02:53:51;;;;;;;4.80;4.30;;;;;19.40;98821.00;;;;2064285;28;20218;-68
2023/03/08 02:54:52;;;;;;;5.30;4.77;;;;;19.40;98813.00;;;;2064270;28;20218;-67
2023/03/08 02:55:52;;;;;;;4.60;4.15;;;;;19.40;98816.00;;;;2064007;28;20302;-68
2023/03/08 02:56:53;;;;;;;4.70;4.27;;;;;19.40;98812.00;;;;2063313;28;20588;-69
2023/03/08 02:57:53;;;;;;;5.27;4.77;;;;;19.40;98816.00;;;;2063761;28;20611;-68
2023/03/08 02:58:53;;;;;;;5.70;5.13;;;;;19.40;98815.00;;;;2064090;28;20725;-67
2023/03/08 02:59:54;;;;;;;4.73;4.33;;;;;19.30;98809.00;;;;2064128;28;20226;-69
2023/03/08 03:00:54;;;;;;;4.43;4.03;;;;;19.40;98808.00;;;;2063917;28;20211;-67
2023/03/08 03:01:56;;;;;;;4.67;4.20;;;;;19.40;98812.00;;;;2064097;28;20222;-68
2023/03/08 03:02:56;;;;;;;4.43;4.03;;;;;19.40;98816.00;;;;2063891;28;20577;-67
2023/03/08 03:03:56;;;;;;;5.17;4.67;;;;;19.40;98808.00;;;;2064148;28;20218;-67
2023/03/08 03:04:57;;;;;;;5.20;4.20;;;;;19.30;98755.00;;;;2064150;28;20280;-68
2023/03/08 03:05:57;;;;;;;4.40;4.00;;;;;19.30;98817.00;;;;2047520;28;20635;-68
2023/03/08 03:06:57;;;;;;;5.33;4.90;;;;;19.30;98795.00;;;;2047542;28;20657;-72
2023/03/08 03:07:58;;;;;;;5.53;4.30;;;;;19.40;98819.00;;;;2063832;28;20682;-70
2023/03/08 03:08:58;;;;;;;4.63;4.23;;;;;19.40;98814.00;;;;2063997;28;20709;-69
2023/03/08 03:09:58;;;;;;;4.27;3.87;;;;;19.40;98806.00;;;;2064026;28;20215;-68
2023/03/08 03:10:58;;;;;;;4.17;3.77;;;;;19.40;98812.00;;;;2064008;28;20245;-68
2023/03/08 03:11:59;;;;;;;4.73;3.90;;;;;19.40;98802.00;;;;2063866;28;20215;-69
2023/03/08 03:12:59;;;;;;;5.03;4.07;;;;;19.40;98807.00;;;;2063991;28;20241;-68
2023/03/08 03:13:59;;;;;;;5.83;3.90;;;;;19.40;98805.00;;;;2064028;28;20219;-68
2023/03/08 03:15:01;;;;;;;4.87;4.20;;;;;19.40;98798.00;;;;2064107;28;20215;-69
2023/03/08 03:16:09;;;;;;;5.30;4.80;;;;;19.40;98807.00;;;;2054974;28;20263;-68
2023/03/08 03:17:10;;;;;;;5.35;4.30;;;;;19.40;98811.00;;;;2048616;28;20216;-67
2023/03/08 03:18:10;;;;;;;4.53;3.57;;;;;19.40;98813.00;;;;2054923;28;20224;-68
2023/03/08 03:19:10;;;;;;;6.57;4.30;;;;;19.40;98746.00;;;;2064069;28;20230;-68
2023/03/08 03:20:11;;;;;;;5.00;4.00;;;;;19.40;98805.00;;;;2055246;28;20293;-68
2023/03/08 03:21:12;;;;;;;4.67;4.27;;;;;19.40;98806.00;;;;2055306;28;20243;-68
2023/03/08 03:22:12;;;;;;;4.80;4.23;;;;;19.40;98810.00;;;;2055200;28;20216;-67
2023/03/08 03:23:13;;;;;;;7.60;4.80;;;;;19.40;98811.00;;;;2055353;28;20676;-68
2023/03/08 03:24:13;;;;;;;4.93;4.50;;;;;19.30;98803.00;;;;2063988;28;20236;-68
2023/03/08 03:25:13;;;;;;;5.47;4.97;;;;;19.30;98805.00;;;;2063905;28;20218;-68
2023/03/08 03:26:20;;;;;;;6.67;5.00;;;;;19.30;98808.00;;;;2063741;28;20233;-67
2023/03/08 03:27:21;;;;;;;6.53;4.63;;;;;19.30;98803.00;;;;2064009;28;20680;-68
2023/03/08 03:28:21;;;;;;;5.40;4.90;;;;;19.30;98797.00;;;;2055066;28;20228;-67
2023/03/08 03:29:21;;;;;;;4.43;3.87;;;;;19.30;98798.00;;;;2055331;28;20215;-68
2023/03/08 03:30:22;;;;;;;5.13;4.63;;;;;19.20;98796.00;;;;2063714;28;20234;-67
2023/03/08 03:31:22;;;;;;;6.80;4.70;;;;;19.30;98796.00;;;;2063930;28;20241;-68
2023/03/08 03:32:22;;;;;;;5.33;4.20;;;;;19.30;98800.00;;;;2055274;28;20310;-68
2023/03/08 03:33:23;;;;;;;5.40;4.30;;;;;19.20;98802.00;;;;2046785;28;20220;-69
2023/03/08 03:34:23;;;;;;;5.70;4.53;;;;;19.20;98795.00;;;;2055215;28;20294;-68
2023/03/08 03:35:23;;;;;;;5.43;4.90;;;;;19.20;98804.00;;;;2055187;28;20215;-69
2023/03/08 03:36:24;;;;;;;7.17;4.87;;;;;19.20;98791.00;;;;2054635;28;20215;-69
2023/03/08 03:37:24;;;;;;;5.60;4.50;;;;;19.20;98798.00;;;;2055261;28;20207;-70
2023/03/08 03:38:24;;;;;;;11.37;4.80;;;;;19.20;98793.00;;;;2054962;28;20203;-70
2023/03/08 03:39:25;;;;;;;6.20;4.60;;;;;19.10;98798.00;;;;2055118;28;20259;-70
2023/03/08 03:40:25;;;;;;;6.47;4.67;;;;;19.10;98794.00;;;;2063794;28;20246;-69
2023/03/08 03:41:25;;;;;;;6.30;4.47;;;;;19.20;98803.00;;;;2063369;28;20615;-69
2023/03/08 03:42:26;;;;;;;5.27;4.77;;;;;19.20;98795.00;;;;2064713;28;20593;-69
2023/03/08 03:43:26;;;;;;;8.20;4.50;;;;;19.20;98786.00;;;;2071664;28;20762;-69
2023/03/08 03:44:29;;;;;;;6.10;4.10;;;;;19.10;98776.00;;;;2062930;28;20690;-69
2023/03/08 03:45:30;;;;;;;5.93;4.22;;;;;19.10;98779.00;;;;2063467;28;20214;-69
2023/03/08 03:46:30;;;;;;;8.23;4.60;;;;;19.10;98778.00;;;;2071560;28;20225;-68
2023/03/08 03:47:30;;;;;;;5.00;4.37;;;;;19.10;98777.00;;;;2071593;28;20236;-69
2023/03/08 03:48:31;;;;;;;5.20;3.80;;;;;19.10;98776.00;;;;2071360;28;20206;-69
2023/03/08 03:49:31;;;;;;;5.03;4.53;;;;;19.10;98774.00;;;;2063067;28;20210;-69
2023/03/08 03:50:32;;;;;;;6.37;5.77;;;;;19.10;98773.00;;;;2054967;28;20221;-69
2023/03/08 03:51:32;;;;;;;7.17;6.40;;;;;19.10;98775.00;;;;2063138;28;20207;-68
2023/03/08 03:52:32;;;;;;;7.70;6.90;;;;;19.10;98771.00;;;;2070934;28;20237;-69
2023/03/08 03:53:33;;;;;;;8.00;7.20;;;;;19.10;98767.00;;;;2064748;28;20223;-69
2023/03/08 03:54:33;;;;;;;13.70;10.60;;;;;19.10;98767.00;;;;2062793;28;20214;-68
2023/03/08 03:55:34;;;;;;;10.60;7.97;;;;;19.10;98762.00;;;;2063632;28;20270;-69
2023/03/08 03:56:34;;;;;;;13.60;11.93;;;;;19.10;98756.00;;;;2063668;28;20627;-69
2023/03/08 03:57:34;;;;;;;16.93;13.20;;;;;19.10;98770.00;;;;2063651;28;20586;-69
2023/03/08 03:58:35;;;;;;;19.77;14.80;;;;;19.10;98769.00;;;;2063554;28;20211;-69
2023/03/08 03:59:35;;;;;;;18.67;15.20;;;;;19.10;98769.00;;;;2063513;28;20226;-69
2023/03/08 04:00:35;;;;;;;17.60;14.10;;;;;19.10;98768.00;;;;2063553;28;20225;-68
2023/03/08 04:01:36;;;;;;;24.20;17.90;;;;;19.10;98764.00;;;;2063664;28;20242;-68
2023/03/08 04:02:36;;;;;;;26.70;17.93;;;;;19.00;98771.00;;;;2063752;28;20215;-68
2023/03/08 04:03:36;;;;;;;22.97;17.20;;;;;19.10;98768.00;;;;2062918;28;20732;-68
2023/03/08 04:04:37;;;;;;;21.77;17.03;;;;;19.10;98767.00;;;;2063690;28;20207;-69
2023/03/08 04:05:38;;;;;;;25.50;17.43;;;;;19.10;98756.00;;;;2063742;28;20249;-68
2023/03/08 04:06:39;;;;;;;29.45;19.20;;;;;19.10;98758.00;;;;2062863;28;20226;-69
2023/03/08 04:07:39;;;;;;;26.57;19.67;;;;;19.00;98754.00;;;;2062941;28;20230;-69
2023/03/08 04:08:41;;;;;;;24.80;19.23;;;;;19.00;98753.00;;;;2063400;28;20272;-69
2023/03/08 04:09:41;;;;;;;23.60;17.38;;;;;19.00;98752.00;;;;2062880;28;20229;-69
2023/03/08 04:10:41;;;;;;;25.80;19.87;;;;;19.00;98747.00;;;;2062933;28;20234;-69
2023/03/08 04:11:42;;;;;;;25.13;19.73;;;;;19.00;98745.00;;;;2063365;28;20410;-69
2023/03/08 04:12:42;;;;;;;24.80;18.40;;;;;19.00;98735.00;;;;2063421;28;20214;-69
2023/03/08 04:13:42;;;;;;;29.97;22.43;;;;;19.00;98738.00;;;;2063300;28;20376;-68
2023/03/08 04:14:43;;;;;;;29.10;21.97;;;;;19.00;98731.00;;;;2063604;28;20245;-68
2023/03/08 04:15:43;;;;;;;28.73;24.37;;;;;19.00;98730.00;;;;2063528;28;20598;-68
2023/03/08 04:16:44;;;;;;;34.10;26.60;;;;;19.00;98736.00;;;;2063308;28;20234;-69
2023/03/08 04:17:44;;;;;;;37.00;28.13;;;;;19.00;98734.00;;;;2063685;28;20277;-69
2023/03/08 04:18:45;;;;;;;39.00;28.10;;;;;19.00;98737.00;;;;2062883;28;20597;-69
2023/03/08 04:19:47;;;;;;;41.30;30.77;;;;;19.00;98740.00;;;;2063621;28;20686;-70
2023/03/08 04:20:48;;;;;;;40.78;31.27;;;;;19.00;98744.00;;;;2063593;28;20678;-69
2023/03/08 04:21:48;;;;;;;42.87;33.27;;;;;19.00;98743.00;;;;2063229;28;20215;-69
2023/03/08 04:22:49;;;;;;;49.93;38.83;;;;;19.00;98729.00;;;;2063573;28;20573;-69
2023/03/08 04:23:49;;;;;;;48.00;35.53;;;;;19.00;98731.00;;;;2063353;28;20576;-69
2023/03/08 04:24:49;;;;;;;51.37;38.20;;;;;19.00;98726.00;;;;2063438;28;20222;-69
2023/03/08 04:25:49;;;;;;;54.00;37.17;;;;;19.00;98726.00;;;;2063483;28;20222;-69
2023/03/08 04:26:50;;;;;;;56.50;41.67;;;;;18.90;98722.00;;;;2063201;28;20242;-69
2023/03/08 04:27:50;;;;;;;57.30;42.70;;;;;19.00;98724.00;;;;2063243;28;20211;-69
2023/03/08 04:28:50;;;;;;;62.70;43.70;;;;;19.00;98722.00;;;;2063353;28;20214;-69
2023/03/08 04:29:51;;;;;;;58.33;42.87;;;;;19.00;98719.00;;;;2062932;28;20222;-69
2023/03/08 04:30:51;;;;;;;56.17;41.33;;;;;18.90;98715.00;;;;2062954;28;20297;-69
2023/03/08 04:31:54;;;;;;;56.83;40.47;;;;;18.90;98715.00;;;;2062808;28;20239;-69
2023/03/08 04:32:54;;;;;;;59.40;45.28;;;;;19.00;98716.00;;;;2063046;28;20222;-69
2023/03/08 04:33:55;;;;;;;59.17;43.50;;;;;18.90;98718.00;;;;2063333;28;20226;-68
2023/03/08 04:34:55;;;;;;;57.90;43.33;;;;;18.90;98720.00;;;;2063534;28;20222;-69
2023/03/08 04:35:55;;;;;;;55.77;40.77;;;;;18.90;98715.00;;;;2063047;28;20223;-68
2023/03/08 04:36:56;;;;;;;54.17;40.30;;;;;18.90;98723.00;;;;2063244;28;20252;-69
2023/03/08 04:37:56;;;;;;;53.27;39.47;;;;;18.90;98713.00;;;;2063288;28;20211;-68
2023/03/08 04:38:56;;;;;;;52.67;38.57;;;;;18.90;98720.00;;;;2063199;28;20245;-69
2023/03/08 04:39:57;;;;;;;53.70;38.70;;;;;18.90;98708.00;;;;2063160;28;20244;-68
2023/03/08 04:41:12;;;;;;;53.83;38.70;;;;;18.90;98713.00;;;;2063399;28;20226;-68
2023/03/08 04:42:12;;;;;;;52.53;38.05;;;;;18.90;98712.00;;;;2063428;28;20221;-69
2023/03/08 04:43:13;;;;;;;51.60;36.87;;;;;18.90;98705.00;;;;2063557;28;20214;-69
2023/03/08 04:44:13;;;;;;;51.47;36.60;;;;;18.90;98715.00;;;;2063551;28;20280;-68
2023/03/08 04:45:14;;;;;;;47.23;35.47;;;;;18.90;98714.00;;;;2063379;28;20242;-68
2023/03/08 04:46:15;;;;;;;45.10;34.60;;;;;18.90;98699.00;;;;2063259;28;20233;-68
2023/03/08 04:47:15;;;;;;;42.33;32.50;;;;;18.90;98712.00;;;;2062857;28;20226;-69
2023/03/08 04:48:15;;;;;;;44.40;33.23;;;;;18.90;98712.00;;;;2062071;28;20218;-69
2023/03/08 04:49:16;;;;;;;43.20;32.37;;;;;18.90;98703.00;;;;2063545;28;20304;-69
2023/03/08 04:50:16;;;;;;;40.93;32.03;;;;;18.90;98703.00;;;;2063489;28;20250;-69
2023/03/08 04:51:17;;;;;;;42.03;31.13;;;;;18.90;98706.00;;;;2063296;28;20215;-68
2023/03/08 04:52:17;;;;;;;41.67;30.47;;;;;18.90;98699.00;;;;2063524;28;20269;-69
2023/03/08 04:53:17;;;;;;;36.83;29.07;;;;;18.90;98693.00;;;;2068057;28;20212;-69
2023/03/08 04:54:18;;;;;;;40.83;29.93;;;;;18.90;98691.00;;;;2072805;28;20221;-68
2023/03/08 04:55:18;;;;;;;37.50;28.60;;;;;18.90;98693.00;;;;2073216;28;20296;-69
2023/03/08 04:56:18;;;;;;;36.20;26.90;;;;;18.90;98694.00;;;;2072680;28;20214;-69
2023/03/08 04:57:19;;;;;;;35.50;27.20;;;;;18.90;98691.00;;;;2073193;28;20555;-69
2023/03/08 04:58:19;;;;;;;36.53;27.17;;;;;18.90;98691.00;;;;2072875;28;20214;-69
2023/03/08 04:59:19;;;;;;;32.80;25.07;;;;;18.90;98681.00;;;;2064651;28;20612;-68
2023/03/08 05:00:20;;;;;;;29.60;23.30;;;;;18.90;98685.00;;;;2064137;28;20250;-68
2023/03/08 05:01:21;;;;;;;33.00;25.40;;;;;18.90;98686.00;;;;2073006;28;20240;-69
2023/03/08 05:02:22;;;;;;;34.10;24.70;;;;;18.90;98681.00;;;;2073009;28;20689;-68